Time;durP1;ratioP1;P1;durP2;ratioP2;P2;SDS_P1;SDS_P2;PMS_P1;PMS_P2;Temp;Humidity;BMP_temperature;BMP_pressure;BME280_temperature;BME280_humidity;BME280_pressure;Samples;Min_cycle;Max_cycle;Signal;HPM_P1;HPM_P2
2022/08/02 00:00:41;;;;;;;7.65;3.25;;;7.70;99.90;;;;;;4976185;28;20034;-70
2022/08/02 00:03:07;;;;;;;7.78;3.05;;;7.70;99.90;;;;;;4976171;28;20473;-69
2022/08/02 00:05:32;;;;;;;6.60;3.40;;;7.60;99.90;;;;;;4976033;28;20033;-70
2022/08/02 00:07:58;;;;;;;9.50;3.53;;;7.60;99.90;;;;;;4975966;28;20105;-70
2022/08/02 00:10:24;;;;;;;7.07;3.30;;;7.60;99.90;;;;;;4975999;28;20030;-70
2022/08/02 00:12:49;;;;;;;9.90;4.05;;;7.60;99.90;;;;;;4975812;28;20111;-70
2022/08/02 00:15:15;;;;;;;10.13;3.30;;;7.50;99.90;;;;;;4975685;28;20034;-70
2022/08/02 00:17:40;;;;;;;8.75;3.55;;;7.50;99.90;;;;;;4975987;28;20062;-70
2022/08/02 00:20:06;;;;;;;6.50;3.70;;;7.40;99.90;;;;;;4975892;28;20483;-70
2022/08/02 00:22:32;;;;;;;9.18;4.18;;;7.40;99.90;;;;;;4975608;28;20106;-70
2022/08/02 00:24:57;;;;;;;8.07;4.00;;;7.40;99.90;;;;;;4975670;28;20050;-70
2022/08/02 00:27:23;;;;;;;9.82;4.28;;;7.50;99.90;;;;;;4975755;28;20022;-69
2022/08/02 00:29:50;;;;;;;8.38;3.35;;;7.40;99.90;;;;;;4975803;28;20042;-70
2022/08/02 00:32:16;;;;;;;9.57;4.22;;;7.40;99.90;;;;;;4975512;28;20022;-70
2022/08/02 00:34:42;;;;;;;9.38;4.25;;;7.40;99.90;;;;;;4975553;28;20019;-70
2022/08/02 00:37:07;;;;;;;9.98;3.97;;;7.40;99.90;;;;;;4975436;28;20023;-70
2022/08/02 00:39:33;;;;;;;10.63;4.10;;;7.40;99.90;;;;;;4975358;28;20387;-70
2022/08/02 00:41:58;;;;;;;6.63;3.72;;;7.40;99.90;;;;;;4975299;28;20124;-70
2022/08/02 00:44:24;;;;;;;10.10;3.53;;;7.30;99.90;;;;;;4975308;28;20034;-70
2022/08/02 00:46:50;;;;;;;13.93;4.53;;;7.30;99.90;;;;;;4975309;28;20471;-70
2022/08/02 00:49:15;;;;;;;10.45;4.00;;;7.30;99.90;;;;;;4975281;28;20484;-70
2022/08/02 00:51:41;;;;;;;11.85;4.05;;;7.20;99.90;;;;;;4975208;28;20109;-70
2022/08/02 00:54:07;;;;;;;9.45;3.38;;;7.20;99.90;;;;;;4975266;28;20054;-70
2022/08/02 00:56:33;;;;;;;5.00;3.40;;;7.20;99.90;;;;;;4975138;28;20030;-70
2022/08/02 00:58:59;;;;;;;6.82;3.42;;;7.10;99.90;;;;;;4974795;28;20070;-70
2022/08/02 01:01:37;;;;;;;8.30;4.32;;;7.10;99.90;;;;;;4974936;28;20022;-70
2022/08/02 01:04:13;;;;;;;7.88;3.90;;;7.10;99.90;;;;;;4975197;28;20026;-70
2022/08/02 01:06:40;;;;;;;5.60;3.53;;;7.00;99.90;;;;;;4975070;28;20399;-70
2022/08/02 01:09:07;;;;;;;9.20;4.20;;;6.90;99.90;;;;;;4975028;28;20034;-70
2022/08/02 01:11:34;;;;;;;4.07;3.35;;;7.00;99.90;;;;;;4974913;28;20099;-70
2022/08/02 01:14:18;;;;;;;7.20;3.08;;;6.80;99.90;;;;;;4974989;28;20031;-70
2022/08/02 01:17:02;;;;;;;5.68;3.42;;;6.80;99.90;;;;;;4974951;28;20387;-70
2022/08/02 01:20:04;;;;;;;9.00;3.40;;;6.70;99.90;;;;;;4975124;28;20061;-70
2022/08/02 01:22:32;;;;;;;6.80;3.30;;;6.60;99.90;;;;;;5008636;23;20115;-67
2022/08/02 01:25:43;;;;;;;6.35;3.60;;;6.60;99.90;;;;;;5033339;28;20033;-68
2022/08/02 01:28:33;;;;;;;4.25;2.88;;;6.50;99.90;;;;;;5033344;28;20499;-68
2022/08/02 01:31:11;;;;;;;9.13;3.42;;;6.50;99.90;;;;;;5033277;28;20116;-68
2022/08/02 01:33:46;;;;;;;9.50;3.47;;;6.50;99.90;;;;;;5033249;28;20358;-68
2022/08/02 01:36:15;;;;;;;4.30;2.97;;;6.50;99.90;;;;;;5033202;28;20484;-68
2022/08/02 01:38:47;;;;;;;9.43;3.20;;;6.40;99.90;;;;;;5033220;28;20021;-68
2022/08/02 01:41:18;;;;;;;7.85;3.25;;;6.30;99.90;;;;;;5033147;28;20018;-67
2022/08/02 01:43:45;;;;;;;11.23;3.85;;;6.30;99.90;;;;;;5033117;28;20033;-68
2022/08/02 01:46:13;;;;;;;6.68;3.38;;;6.20;99.90;;;;;;5033080;28;20436;-68
2022/08/02 01:48:41;;;;;;;6.38;3.42;;;6.30;99.90;;;;;;5033138;28;20029;-68
2022/08/02 01:51:11;;;;;;;6.50;3.15;;;6.20;99.90;;;;;;5032956;28;20028;-68
2022/08/02 01:53:38;;;;;;;11.15;5.07;;;6.20;99.90;;;;;;5032953;28;20049;-68
2022/08/02 01:56:06;;;;;;;7.30;3.65;;;6.10;99.90;;;;;;5032892;28;20032;-68
2022/08/02 01:58:36;;;;;;;13.90;3.47;;;6.10;99.90;;;;;;5032973;28;20018;-68
2022/08/02 02:01:05;;;;;;;9.77;3.53;;;6.10;99.90;;;;;;5033230;28;20022;-68
2022/08/02 02:03:32;;;;;;;7.90;3.60;;;6.10;99.90;;;;;;5032891;28;20120;-68
2022/08/02 02:06:00;;;;;;;9.73;3.42;;;6.10;99.90;;;;;;5032854;28;20078;-68
2022/08/02 02:08:42;;;;;;;8.35;3.38;;;6.10;99.90;;;;;;5032857;28;20139;-68
2022/08/02 02:11:08;;;;;;;6.60;3.50;;;6.10;99.90;;;;;;5035180;28;20037;-68
2022/08/02 02:13:41;;;;;;;10.13;3.40;;;6.10;99.90;;;;;;5036840;28;20422;-68
2022/08/02 02:16:08;;;;;;;12.13;3.63;;;6.10;99.90;;;;;;5036583;28;20090;-68
2022/08/02 02:18:40;;;;;;;6.45;3.33;;;6.20;99.90;;;;;;5036634;28;20053;-67
2022/08/02 02:21:06;;;;;;;13.07;4.70;;;6.20;99.90;;;;;;5036572;28;20022;-67
2022/08/02 02:23:32;;;;;;;11.82;3.60;;;6.30;99.90;;;;;;5036310;28;20037;-67
2022/08/02 02:25:58;;;;;;;7.15;4.07;;;6.30;99.90;;;;;;5036414;28;20504;-67
2022/08/02 02:28:31;;;;;;;10.25;3.78;;;6.40;99.90;;;;;;5036483;28;20030;-67
2022/08/02 02:31:05;;;;;;;5.27;3.70;;;6.30;99.90;;;;;;5036368;28;20022;-67
2022/08/02 02:33:34;;;;;;;11.25;3.70;;;6.40;99.90;;;;;;5036308;28;20067;-68
2022/08/02 02:36:01;;;;;;;9.68;3.60;;;6.50;99.90;;;;;;5036184;28;20021;-68
2022/08/02 02:38:30;;;;;;;7.30;3.40;;;6.50;99.90;;;;;;5036288;28;20021;-68
2022/08/02 02:40:59;;;;;;;8.32;3.45;;;6.50;99.90;;;;;;5036187;28;20493;-68
2022/08/02 02:43:28;;;;;;;7.45;3.70;;;6.60;99.90;;;;;;5036062;28;20040;-68
2022/08/02 02:45:55;;;;;;;3.80;2.88;;;6.60;99.90;;;;;;5036176;28;20101;-68
2022/08/02 02:48:21;;;;;;;6.07;3.25;;;6.70;99.90;;;;;;5036050;28;20473;-66
2022/08/02 02:50:47;;;;;;;4.63;2.63;;;6.70;99.90;;;;;;5035980;28;20044;-66
2022/08/02 02:53:17;;;;;;;12.98;3.25;;;6.70;99.90;;;;;;5035896;28;20067;-66
2022/08/02 02:55:43;;;;;;;4.32;2.90;;;6.70;99.90;;;;;;5035766;28;20031;-66
2022/08/02 02:58:09;;;;;;;7.53;2.65;;;6.80;99.90;;;;;;5035873;28;20477;-66
2022/08/02 03:03:19;;;;;;;5.03;2.92;;;6.80;99.90;;;;;;5035784;28;20064;-66
2022/08/02 03:05:45;;;;;;;5.75;2.75;;;6.80;99.90;;;;;;5035700;28;20056;-66
2022/08/02 03:08:11;;;;;;;8.20;3.05;;;6.80;99.90;;;;;;5035723;28;20438;-67
2022/08/02 03:10:38;;;;;;;6.63;3.25;;;6.80;99.90;;;;;;5035888;28;20079;-67
2022/08/02 03:13:04;;;;;;;5.95;2.78;;;6.80;99.90;;;;;;5035439;28;20026;-67
2022/08/02 03:15:30;;;;;;;4.03;2.63;;;6.80;99.90;;;;;;5035497;28;20041;-67
2022/08/02 03:17:56;;;;;;;5.95;3.03;;;6.80;99.90;;;;;;5035499;28;20021;-67
2022/08/02 03:20:22;;;;;;;4.45;2.95;;;6.80;99.90;;;;;;5035507;28;20481;-67
2022/08/02 03:22:48;;;;;;;6.38;3.22;;;6.80;99.90;;;;;;5034900;28;20513;-66
2022/08/02 03:25:15;;;;;;;3.97;3.25;;;6.70;99.90;;;;;;5035334;28;20030;-66
2022/08/02 03:27:41;;;;;;;4.45;3.28;;;6.70;99.90;;;;;;5035634;28;20377;-67
2022/08/02 03:30:10;;;;;;;6.05;2.92;;;6.60;99.90;;;;;;5035306;28;20022;-66
2022/08/02 03:32:38;;;;;;;6.38;3.75;;;6.60;99.90;;;;;;5035181;28;20043;-66
2022/08/02 03:35:06;;;;;;;6.30;3.33;;;6.60;99.90;;;;;;5035083;28;20018;-66
2022/08/02 03:37:33;;;;;;;12.13;4.30;;;6.60;99.90;;;;;;5035205;28;20096;-66
2022/08/02 03:39:59;;;;;;;8.75;4.10;;;6.60;99.90;;;;;;5031554;28;20030;-66
2022/08/02 03:42:27;;;;;;;10.48;4.63;;;6.60;99.90;;;;;;5032752;28;20032;-66
2022/08/02 03:44:54;;;;;;;7.93;4.00;;;6.60;99.90;;;;;;5034982;28;20028;-66
2022/08/02 03:47:22;;;;;;;7.38;4.55;;;6.60;99.90;;;;;;5034958;28;20432;-66
2022/08/02 03:49:48;;;;;;;11.05;4.47;;;6.70;99.90;;;;;;5034882;28;20033;-67
2022/08/02 03:52:14;;;;;;;7.95;4.50;;;6.70;99.90;;;;;;5033404;28;20033;-66
2022/08/02 03:54:40;;;;;;;16.25;5.75;;;6.80;99.90;;;;;;5015019;28;20069;-67
2022/08/02 03:57:08;;;;;;;16.90;6.57;;;6.90;99.90;;;;;;5014917;28;20545;-67
2022/08/02 03:59:44;;;;;;;18.33;6.45;;;6.90;99.90;;;;;;5014915;28;20093;-67
2022/08/02 04:02:11;;;;;;;25.95;8.90;;;7.10;99.90;;;;;;5014797;28;20022;-67
2022/08/02 04:04:36;;;;;;;21.88;6.75;;;7.20;99.90;;;;;;5014849;28;20152;-67
2022/08/02 04:07:02;;;;;;;19.35;7.88;;;7.30;99.90;;;;;;5014799;28;20482;-67
2022/08/02 04:09:28;;;;;;;24.92;7.40;;;7.40;99.90;;;;;;5026030;28;20444;-67
2022/08/02 04:11:53;;;;;;;19.73;8.75;;;7.50;99.90;;;;;;5034449;28;20057;-67
2022/08/02 04:14:19;;;;;;;21.50;8.75;;;7.70;99.90;;;;;;5034357;28;20029;-66
2022/08/02 04:16:51;;;;;;;17.67;8.18;;;8.00;99.90;;;;;;5034278;28;20064;-67
2022/08/02 04:19:31;;;;;;;13.45;6.50;;;8.00;99.90;;;;;;5034653;28;20116;-66
2022/08/02 04:22:00;;;;;;;15.15;6.80;;;8.10;99.90;;;;;;5034198;28;20030;-66
2022/08/02 04:24:30;;;;;;;15.98;7.93;;;8.20;99.90;;;;;;5031356;28;20053;-67
2022/08/02 04:26:58;;;;;;;24.73;7.70;;;8.30;99.90;;;;;;5014525;28;20482;-66
2022/08/02 04:29:25;;;;;;;22.45;8.88;;;8.40;99.90;;;;;;5014396;28;20029;-66
2022/08/02 04:31:52;;;;;;;24.52;8.95;;;8.60;99.90;;;;;;5014358;28;20018;-66
2022/08/02 04:34:18;;;;;;;21.42;9.10;;;8.60;99.90;;;;;;5013521;28;20056;-66
2022/08/02 04:36:45;;;;;;;25.65;9.25;;;8.80;99.90;;;;;;5014206;28;20390;-66
2022/08/02 04:39:10;;;;;;;32.45;9.93;;;8.90;99.90;;;;;;5014402;28;20421;-66
2022/08/02 04:41:43;;;;;;;26.70;8.80;;;9.10;99.90;;;;;;5021689;28;20025;-67
2022/08/02 04:44:09;;;;;;;24.70;8.45;;;9.20;99.90;;;;;;5034015;28;20025;-67
2022/08/02 04:46:36;;;;;;;22.05;8.57;;;9.20;99.90;;;;;;5033831;28;20037;-67
2022/08/02 04:49:02;;;;;;;34.92;9.02;;;9.30;99.90;;;;;;5034052;28;20029;-67
2022/08/02 04:51:27;;;;;;;29.35;9.02;;;9.40;99.90;;;;;;5034026;28;20030;-67
2022/08/02 04:53:53;;;;;;;24.88;9.55;;;9.50;99.90;;;;;;5033666;28;20440;-67
2022/08/02 04:56:18;;;;;;;17.02;9.25;;;9.60;99.90;;;;;;5033877;28;20072;-67
2022/08/02 04:58:44;;;;;;;24.98;9.05;;;9.70;99.90;;;;;;5033625;28;20488;-67
2022/08/02 05:01:09;;;;;;;25.63;8.65;;;9.80;99.90;;;;;;5033662;28;20045;-67
2022/08/02 05:03:35;;;;;;;18.88;9.05;;;9.90;99.90;;;;;;5033747;28;20022;-67
2022/08/02 05:06:00;;;;;;;27.33;8.30;;;10.00;99.90;;;;;;5033545;28;20393;-68
2022/08/02 05:08:27;;;;;;;22.85;8.25;;;10.10;99.90;;;;;;5033532;28;20057;-66
2022/08/02 05:10:53;;;;;;;19.73;8.35;;;10.20;99.90;;;;;;5033717;28;20025;-67
2022/08/02 05:13:18;;;;;;;27.48;8.93;;;10.30;99.90;;;;;;5033403;28;20033;-66
2022/08/02 05:15:48;;;;;;;26.45;8.88;;;10.40;99.90;;;;;;5033573;28;20051;-66
2022/08/02 05:18:13;;;;;;;25.50;8.77;;;10.50;99.90;;;;;;5033408;28;20024;-66
2022/08/02 05:20:39;;;;;;;27.02;9.02;;;10.50;99.90;;;;;;5033410;28;20014;-66
2022/08/02 05:23:04;;;;;;;26.02;8.15;;;10.60;99.90;;;;;;5033136;28;20389;-66
2022/08/02 05:25:30;;;;;;;16.52;7.90;;;10.60;99.90;;;;;;5033267;28;20105;-66
2022/08/02 05:27:56;;;;;;;19.70;7.03;;;10.70;99.90;;;;;;5033301;28;20500;-66
2022/08/02 05:30:21;;;;;;;16.67;7.53;;;10.80;99.90;;;;;;5033136;28;20025;-66
2022/08/02 05:32:51;;;;;;;20.83;7.65;;;10.90;99.90;;;;;;5033141;28;20025;-66
2022/08/02 05:35:22;;;;;;;24.13;7.90;;;11.00;99.90;;;;;;5033151;28;20059;-66
2022/08/02 05:37:49;;;;;;;25.35;8.38;;;11.10;99.90;;;;;;5033220;28;20044;-68
2022/08/02 05:40:15;;;;;;;36.47;7.75;;;11.30;99.90;;;;;;5033179;28;20022;-69
2022/08/02 05:42:41;;;;;;;30.27;7.72;;;11.40;99.90;;;;;;5033307;28;20022;-68
2022/08/02 05:45:07;;;;;;;22.55;6.88;;;11.50;99.90;;;;;;5035364;28;20018;-68
2022/08/02 05:47:34;;;;;;;20.67;7.00;;;11.60;99.90;;;;;;5037241;28;20079;-68
2022/08/02 05:49:59;;;;;;;17.30;6.07;;;11.70;99.90;;;;;;5037154;28;20049;-68
2022/08/02 05:52:32;;;;;;;29.15;7.55;;;11.90;99.90;;;;;;5037069;28;20028;-67
2022/08/02 05:55:27;;;;;;;25.23;5.75;;;12.00;99.90;;;;;;5037045;28;20025;-67
2022/08/02 05:58:04;;;;;;;25.20;6.28;;;12.10;99.90;;;;;;5032243;28;20041;-67
2022/08/02 06:00:31;;;;;;;19.02;5.88;;;12.20;99.90;;;;;;5037014;28;20083;-67
2022/08/02 06:03:21;;;;;;;21.27;5.30;;;12.40;99.90;;;;;;5036842;28;20052;-67
2022/08/02 06:05:59;;;;;;;17.33;4.53;;;12.50;99.90;;;;;;5036854;28;20586;-68
2022/08/02 06:08:31;;;;;;;18.38;5.00;;;12.60;99.90;;;;;;5037109;28;20045;-68
2022/08/02 06:11:01;;;;;;;25.13;5.22;;;12.70;99.90;;;;;;5036716;28;20032;-68
2022/08/02 06:13:27;;;;;;;18.48;5.43;;;12.80;99.90;;;;;;5036509;28;20464;-68
2022/08/02 06:15:57;;;;;;;19.65;4.28;;;12.80;99.90;;;;;;5036611;28;20033;-67
2022/08/02 06:18:23;;;;;;;10.75;4.45;;;13.00;99.90;;;;;;5036845;28;20021;-68
2022/08/02 06:20:50;;;;;;;23.17;4.47;;;13.10;99.90;;;;;;5036698;28;20370;-68
2022/08/02 06:23:18;;;;;;;15.98;4.38;;;13.20;99.90;;;;;;5036390;28;20407;-68
2022/08/02 06:25:46;;;;;;;17.73;4.60;;;13.30;99.90;;;;;;5036725;28;20445;-68
2022/08/02 06:28:15;;;;;;;20.33;4.53;;;13.40;99.90;;;;;;5036422;28;20044;-68
2022/08/02 06:30:42;;;;;;;16.75;4.20;;;13.60;99.90;;;;;;5036336;28;20029;-68
2022/08/02 06:33:08;;;;;;;22.73;3.95;;;13.80;99.90;;;;;;5036086;28;20053;-68
2022/08/02 06:35:51;;;;;;;10.60;2.58;;;13.90;99.90;;;;;;5036498;28;20061;-68
2022/08/02 06:38:31;;;;;;;21.95;3.55;;;14.00;99.90;;;;;;5036506;28;20026;-67
2022/08/02 06:41:08;;;;;;;19.27;3.22;;;14.20;99.90;;;;;;5036256;28;20021;-68
2022/08/02 06:43:48;;;;;;;16.45;3.47;;;14.40;99.90;;;;;;5036012;28;20576;-68
2022/08/02 06:46:14;;;;;;;10.57;2.65;;;14.70;99.90;;;;;;5036146;28;20029;-67
2022/08/02 06:48:40;;;;;;;18.92;2.75;;;14.90;99.90;;;;;;5036054;28;20460;-67
2022/08/02 06:51:06;;;;;;;21.05;3.15;;;15.10;99.90;;;;;;5035978;28;20527;-67
2022/08/02 06:53:32;;;;;;;12.63;2.58;;;15.10;99.90;;;;;;5035661;28;20116;-67
2022/08/02 06:55:57;;;;;;;12.63;2.42;;;15.30;99.90;;;;;;5034999;28;20029;-67
2022/08/02 06:58:23;;;;;;;20.17;3.15;;;15.60;99.90;;;;;;5035881;28;20022;-67
2022/08/02 07:00:49;;;;;;;12.40;2.78;;;15.70;99.90;;;;;;5035850;28;20024;-67
2022/08/02 07:03:14;;;;;;;19.83;3.47;;;15.80;99.90;;;;;;5035761;28;20036;-67
2022/08/02 07:05:42;;;;;;;17.27;2.78;;;16.00;99.90;;;;;;5035616;28;20017;-68
2022/08/02 07:08:07;;;;;;;19.45;3.33;;;16.20;99.90;;;;;;5035775;28;20032;-68
2022/08/02 07:10:33;;;;;;;17.48;2.30;;;16.30;99.90;;;;;;5035673;28;20021;-67
2022/08/02 07:12:59;;;;;;;9.35;2.50;;;16.40;99.90;;;;;;5035550;28;20031;-66
2022/08/02 07:15:25;;;;;;;13.40;3.72;;;16.50;99.90;;;;;;5035675;28;20385;-67
2022/08/02 07:17:51;;;;;;;24.73;3.33;;;16.60;99.90;;;;;;5035623;28;20020;-67
2022/08/02 07:20:18;;;;;;;19.17;2.88;;;16.60;99.90;;;;;;5035498;28;20087;-67
2022/08/02 07:22:43;;;;;;;17.80;3.28;;;16.80;99.90;;;;;;5050456;22;20044;-70
2022/08/02 07:25:10;;;;;;;14.48;3.20;;;17.00;99.90;;;;;;5035773;28;20576;-70
2022/08/02 07:27:35;;;;;;;12.45;2.55;;;17.10;99.90;;;;;;5035685;28;20097;-69
2022/08/02 07:30:01;;;;;;;12.73;3.33;;;17.20;99.90;;;;;;5035665;28;20100;-70
2022/08/02 07:32:30;;;;;;;11.02;2.47;;;17.30;99.90;;;;;;5035494;28;20036;-69
2022/08/02 07:34:57;;;;;;;10.85;2.13;;;17.50;99.90;;;;;;5035569;28;20169;-70
2022/08/02 07:37:25;;;;;;;10.77;2.25;;;17.40;99.90;;;;;;5035597;28;20065;-69
2022/08/02 07:39:51;;;;;;;13.57;2.50;;;17.20;99.90;;;;;;5035488;28;20021;-69
2022/08/02 07:42:16;;;;;;;11.98;2.30;;;17.30;99.90;;;;;;5035270;28;20079;-69
2022/08/02 07:44:42;;;;;;;14.65;3.15;;;17.30;99.90;;;;;;5035326;28;20021;-69
2022/08/02 07:47:07;;;;;;;18.73;3.00;;;17.60;99.90;;;;;;5035290;28;20075;-70
2022/08/02 07:49:33;;;;;;;12.13;2.95;;;17.70;99.90;;;;;;5035380;28;20095;-70
2022/08/02 07:51:58;;;;;;;19.75;3.45;;;17.80;99.90;;;;;;5035216;28;20038;-69
2022/08/02 07:54:24;;;;;;;20.58;2.88;;;17.80;99.90;;;;;;5017439;28;20064;-70
2022/08/02 07:56:52;;;;;;;12.98;2.10;;;17.90;99.90;;;;;;5035071;28;20034;-70
2022/08/02 07:59:18;;;;;;;17.42;2.83;;;18.10;99.90;;;;;;5035337;28;20040;-70
2022/08/02 08:01:43;;;;;;;4.75;2.00;;;18.30;99.90;;;;;;5035264;28;20022;-70
2022/08/02 08:04:09;;;;;;;22.10;2.72;;;18.20;99.90;;;;;;5035004;28;20492;-70
2022/08/02 08:06:34;;;;;;;15.82;2.80;;;18.30;99.90;;;;;;5035277;28;20029;-69
2022/08/02 08:09:00;;;;;;;13.48;3.17;;;18.10;99.90;;;;;;5034514;28;20096;-69
2022/08/02 08:11:26;;;;;;;16.52;2.97;;;18.20;99.90;;;;;;5035017;28;20060;-70
2022/08/02 08:13:52;;;;;;;13.73;2.75;;;18.30;99.90;;;;;;5034730;28;20030;-69
2022/08/02 08:16:17;;;;;;;9.60;2.00;;;18.50;99.90;;;;;;5034590;28;20029;-70
2022/08/02 08:18:43;;;;;;;10.85;2.67;;;18.80;99.90;;;;;;5034785;28;20488;-70
2022/08/02 08:21:08;;;;;;;16.70;2.10;;;19.10;99.90;;;;;;5034552;28;20124;-70
2022/08/02 08:23:35;;;;;;;12.80;2.25;;;19.20;99.90;;;;;;5034470;28;20033;-69
2022/08/02 08:26:01;;;;;;;11.18;2.15;;;19.40;99.90;;;;;;5034669;28;20549;-70
2022/08/02 08:28:26;;;;;;;12.23;1.65;;;19.30;99.90;;;;;;5034548;28;20056;-69
2022/08/02 08:30:52;;;;;;;15.98;2.40;;;19.40;99.90;;;;;;5034280;28;20018;-69
2022/08/02 08:33:18;;;;;;;18.40;2.85;;;19.40;99.90;;;;;;5034371;28;20033;-71
2022/08/02 08:35:43;;;;;;;9.38;2.70;;;19.60;99.90;;;;;;5034536;28;20026;-69
2022/08/02 08:38:09;;;;;;;10.52;2.00;;;19.60;99.90;;;;;;5034297;28;20108;-70
2022/08/02 08:40:35;;;;;;;16.27;2.63;;;19.60;99.90;;;;;;5034558;28;20573;-70
2022/08/02 08:43:01;;;;;;;13.25;2.25;;;19.80;99.90;;;;;;5034369;28;20478;-69
2022/08/02 08:45:27;;;;;;;9.95;2.05;;;20.10;99.90;;;;;;5034540;28;20040;-70
2022/08/02 08:48:00;;;;;;;11.75;2.20;;;19.90;99.90;;;;;;5034145;28;20021;-70
2022/08/02 08:50:31;;;;;;;17.73;1.85;;;19.90;99.90;;;;;;5034212;28;20021;-68
2022/08/02 08:53:01;;;;;;;20.40;3.22;;;20.20;99.90;;;;;;5034170;28;20044;-69
2022/08/02 08:55:28;;;;;;;8.45;1.63;;;20.10;99.90;;;;;;5034342;28;20088;-69
2022/08/02 08:57:54;;;;;;;12.73;2.50;;;20.20;99.90;;;;;;5034144;28;20056;-69
2022/08/02 09:00:19;;;;;;;9.95;2.10;;;20.40;99.90;;;;;;5033988;28;20053;-69
2022/08/02 09:02:46;;;;;;;7.20;1.58;;;20.50;99.90;;;;;;5033731;28;20013;-69
2022/08/02 09:05:14;;;;;;;11.32;2.50;;;20.30;99.90;;;;;;5034039;28;20052;-69
2022/08/02 09:07:41;;;;;;;17.25;2.33;;;20.60;99.90;;;;;;5033933;28;20026;-70
2022/08/02 09:10:42;;;;;;;8.73;1.88;;;20.60;99.90;;;;;;5033898;28;20028;-70
2022/08/02 09:13:12;;;;;;;14.70;2.53;;;20.60;99.90;;;;;;5033790;28;20099;-70
2022/08/02 09:15:38;;;;;;;14.85;2.28;;;20.90;99.90;;;;;;5033827;28;20033;-68
2022/08/02 09:18:05;;;;;;;18.30;2.55;;;21.00;99.90;;;;;;5033847;28;20025;-69
2022/08/02 09:20:49;;;;;;;11.50;2.78;;;21.10;99.90;;;;;;5033671;28;20495;-70
2022/08/02 09:23:17;;;;;;;11.52;1.90;;;21.40;99.90;;;;;;5033587;28;20029;-70
2022/08/02 09:25:55;;;;;;;15.65;2.35;;;21.50;99.90;;;;;;5034043;28;20426;-70
2022/08/02 09:28:24;;;;;;;14.40;2.90;;;21.30;99.90;;;;;;5033995;28;20037;-70
2022/08/02 09:30:50;;;;;;;14.27;2.63;;;21.60;99.90;;;;;;5033637;28;20091;-70
2022/08/02 09:33:24;;;;;;;6.18;1.50;;;21.60;99.90;;;;;;5034083;28;20033;-70
2022/08/02 09:36:05;;;;;;;15.55;2.40;;;21.80;99.90;;;;;;5033831;28;20064;-70
2022/08/02 09:38:32;;;;;;;12.93;2.10;;;21.70;99.90;;;;;;5033500;28;20090;-68
2022/08/02 09:40:58;;;;;;;6.80;1.63;;;22.00;99.90;;;;;;5033545;28;20083;-67
2022/08/02 09:43:41;;;;;;;15.20;2.05;;;22.20;99.90;;;;;;5033363;28;20025;-67
2022/08/02 09:46:17;;;;;;;8.18;1.73;;;22.20;99.90;;;;;;5013717;28;20033;-68
2022/08/02 09:49:12;;;;;;;10.45;1.70;;;22.20;99.90;;;;;;5014241;28;20156;-68
2022/08/02 09:51:47;;;;;;;9.00;1.85;;;22.60;99.90;;;;;;5012149;28;20509;-68
2022/08/02 09:54:24;;;;;;;13.30;2.00;;;22.60;99.90;;;;;;5019414;28;20480;-69
2022/08/02 09:56:52;;;;;;;5.97;1.60;;;22.40;99.90;;;;;;5033538;28;20029;-68
2022/08/02 09:59:19;;;;;;;7.60;1.92;;;22.30;99.90;;;;;;5033539;28;20022;-68
2022/08/02 10:01:46;;;;;;;11.40;1.50;;;22.40;99.90;;;;;;5033304;28;20021;-68
2022/08/02 10:04:13;;;;;;;13.25;1.77;;;22.50;99.90;;;;;;5015594;28;20022;-68
2022/08/02 10:06:42;;;;;;;9.90;1.75;;;22.60;99.90;;;;;;5033210;28;20075;-68
2022/08/02 10:09:11;;;;;;;9.05;2.25;;;22.80;99.90;;;;;;5033194;28;20025;-69
2022/08/02 10:11:37;;;;;;;8.73;2.25;;;22.90;99.90;;;;;;5033496;28;20108;-69
2022/08/02 10:14:05;;;;;;;7.57;1.88;;;22.70;99.90;;;;;;5033127;28;20115;-69
2022/08/02 10:16:34;;;;;;;11.32;1.90;;;22.70;99.90;;;;;;5033302;28;20083;-69
2022/08/02 10:19:03;;;;;;;7.43;1.40;;;22.90;99.90;;;;;;5033404;28;20021;-69
2022/08/02 10:21:31;;;;;;;13.77;1.67;;;23.20;99.90;;;;;;5033217;28;20425;-69
2022/08/02 10:24:06;;;;;;;9.50;1.75;;;23.40;99.90;;;;;;5032795;28;20508;-69
2022/08/02 10:26:32;;;;;;;13.98;1.90;;;23.50;99.90;;;;;;5033720;28;20076;-69
2022/08/02 10:28:58;;;;;;;6.88;1.20;;;23.50;99.90;;;;;;5033566;28;20025;-69
2022/08/02 10:31:32;;;;;;;9.45;2.10;;;23.60;99.90;;;;;;5034781;28;20029;-69
2022/08/02 10:34:00;;;;;;;11.55;1.70;;;23.90;99.90;;;;;;5037147;28;20064;-69
2022/08/02 10:36:30;;;;;;;12.32;1.45;;;23.90;99.90;;;;;;5036736;28;20022;-69
2022/08/02 10:38:57;;;;;;;8.48;1.40;;;24.00;99.90;;;;;;5036828;28;20025;-69
2022/08/02 10:41:48;;;;;;;8.57;2.05;;;24.10;99.90;;;;;;5036955;28;20018;-69
2022/08/02 10:44:28;;;;;;;11.25;1.92;;;23.20;99.90;;;;;;5018923;28;20060;-69
2022/08/02 10:47:13;;;;;;;10.85;1.65;;;23.30;99.90;;;;;;5036798;28;20029;-69
2022/08/02 10:49:59;;;;;;;11.18;1.88;;;23.20;99.90;;;;;;5036443;28;20072;-69
2022/08/02 10:52:28;;;;;;;4.45;1.30;;;23.20;99.90;;;;;;5036557;28;20044;-69
2022/08/02 10:54:57;;;;;;;13.30;1.88;;;23.40;99.90;;;;;;5036313;28;20056;-70
2022/08/02 10:57:25;;;;;;;7.10;1.90;;;24.00;99.90;;;;;;5036255;28;20034;-69
2022/08/02 10:59:57;;;;;;;6.18;1.55;;;24.00;99.90;;;;;;5036615;28;20029;-69
2022/08/02 11:02:43;;;;;;;8.57;1.95;;;23.90;99.90;;;;;;5036514;28;20097;-69
2022/08/02 11:05:17;;;;;;;11.52;2.20;;;24.20;99.90;;;;;;5036156;28;20491;-69
2022/08/02 11:07:48;;;;;;;10.05;1.88;;;24.20;99.90;;;;;;5036238;28;20378;-70
2022/08/02 11:10:31;;;;;;;5.70;1.40;;;24.60;99.90;;;;;;5036215;28;20022;-70
2022/08/02 11:13:18;;;;;;;7.87;2.13;;;24.40;99.90;;;;;;5036025;28;20026;-70
2022/08/02 11:15:55;;;;;;;7.18;1.92;;;24.80;99.90;;;;;;5035971;28;20287;-70
2022/08/02 11:18:22;;;;;;;8.75;1.92;;;24.90;99.90;;;;;;5036011;28;20026;-70
2022/08/02 11:21:27;;;;;;;5.82;1.33;;;25.00;99.90;;;;;;5036161;28;20025;-70
2022/08/02 11:23:54;;;;;;;12.00;1.83;;;24.90;99.90;;;;;;5035567;28;20393;-70
2022/08/02 11:26:46;;;;;;;11.25;1.98;;;24.90;99.90;;;;;;5035566;28;20029;-70
2022/08/02 11:29:12;;;;;;;5.22;1.52;;;24.50;99.90;;;;;;5025575;28;20033;-70
2022/08/02 11:31:40;;;;;;;6.63;1.45;;;24.40;99.90;;;;;;5031850;28;20099;-70
2022/08/02 11:34:05;;;;;;;8.27;1.55;;;24.10;99.90;;;;;;5031825;28;20388;-70
2022/08/02 11:36:31;;;;;;;9.43;2.03;;;24.40;99.90;;;;;;5035295;28;20030;-70
2022/08/02 11:39:14;;;;;;;7.97;1.92;;;24.90;99.90;;;;;;5033732;28;20022;-70
2022/08/02 11:41:40;;;;;;;9.52;1.52;;;25.20;99.90;;;;;;5025567;28;20072;-70
2022/08/02 11:44:06;;;;;;;5.65;1.23;;;25.30;99.90;;;;;;5025828;28;20052;-70
2022/08/02 11:46:32;;;;;;;11.18;1.77;;;25.10;99.90;;;;;;5015340;28;20478;-70
2022/08/02 11:49:17;;;;;;;6.07;1.30;;;25.10;99.90;;;;;;5015674;28;20034;-70
2022/08/02 11:52:06;;;;;;;5.68;1.20;;;24.90;99.90;;;;;;5015721;28;20022;-70
2022/08/02 11:54:36;;;;;;;8.63;2.15;;;25.10;99.90;;;;;;5015470;28;20040;-70
2022/08/02 11:57:12;;;;;;;8.07;1.42;;;25.10;99.90;;;;;;5015129;28;20032;-70
2022/08/02 11:59:39;;;;;;;4.18;1.27;;;25.00;99.90;;;;;;5020851;28;20025;-70
2022/08/02 12:02:06;;;;;;;7.63;1.42;;;25.20;99.90;;;;;;5035742;28;20029;-70
2022/08/02 12:04:31;;;;;;;7.35;1.55;;;25.20;99.90;;;;;;5034735;28;20025;-70
2022/08/02 12:06:58;;;;;;;3.38;1.17;;;25.10;99.90;;;;;;5034875;28;20163;-70
2022/08/02 12:09:27;;;;;;;13.43;1.63;;;24.80;99.90;;;;;;5035077;28;20026;-70
2022/08/02 12:11:53;;;;;;;7.20;1.40;;;24.50;99.90;;;;;;5034939;28;20029;-70
2022/08/02 12:14:19;;;;;;;5.03;1.27;;;24.50;99.90;;;;;;5034650;28;20579;-70
2022/08/02 12:19:31;;;;;;;5.55;1.40;;;24.00;99.90;;;;;;5035172;28;20028;-70
2022/08/02 12:22:17;;;;;;;5.95;1.65;;;23.80;99.90;;;;;;5034562;28;20021;-70
2022/08/02 12:24:46;;;;;;;9.02;1.77;;;23.70;99.90;;;;;;5034709;28;20037;-70
2022/08/02 12:27:35;;;;;;;5.40;1.55;;;23.70;99.90;;;;;;5034702;28;20030;-70
2022/08/02 12:30:09;;;;;;;7.80;1.10;;;23.50;99.90;;;;;;5034642;28;20030;-70
2022/08/02 12:32:36;;;;;;;11.10;1.58;;;23.40;99.90;;;;;;5019780;28;20374;-70
2022/08/02 12:35:16;;;;;;;4.88;1.60;;;23.30;99.90;;;;;;5014509;28;20029;-70
2022/08/02 12:37:43;;;;;;;6.28;1.73;;;23.30;99.90;;;;;;5014790;28;20076;-70
2022/08/02 12:40:31;;;;;;;5.60;1.35;;;23.30;99.90;;;;;;5014591;28;20033;-69
2022/08/02 12:43:15;;;;;;;6.22;1.70;;;23.50;99.90;;;;;;5014666;28;20041;-70
2022/08/02 12:45:56;;;;;;;9.10;1.40;;;23.80;99.90;;;;;;5014906;28;20121;-70
2022/08/02 12:48:34;;;;;;;5.15;1.42;;;24.70;99.90;;;;;;5014325;28;20100;-69
2022/08/02 12:51:18;;;;;;;3.88;1.25;;;25.80;99.90;;;;;;5014708;28;20025;-69
2022/08/02 12:53:43;;;;;;;;;;;25.90;99.90;;;;;;5014429;28;20022;-69
2022/08/02 12:56:09;;;;;;;5.68;1.25;;;25.50;99.90;;;;;;5014291;28;20273;-69
2022/08/02 12:58:50;;;;;;;4.18;1.13;;;25.40;99.90;;;;;;5014516;28;20517;-69
2022/08/02 13:01:26;;;;;;;10.02;1.48;;;25.60;99.90;;;;;;5014113;28;20391;-69
2022/08/02 13:03:52;;;;;;;11.55;1.52;;;26.50;99.90;;;;;;5013994;28;20033;-69